Time;durP1;ratioP1;P1;durP2;ratioP2;P2;SDS_P1;SDS_P2;PMS_P1;PMS_P2;Temp;Humidity;BMP_temperature;BMP_pressure;BME280_temperature;BME280_humidity;BME280_pressure;Samples;Min_cycle;Max_cycle;Signal;HPM_P1;HPM_P2
2023/09/29 00:01:33;;;;;;;1.20;0.45;;;;;;;;;;4967907;28;20513;-60
2023/09/29 00:04:00;;;;;;;1.08;0.55;;;;;;;;;;4972545;28;20035;-60
2023/09/29 00:06:27;;;;;;;0.75;0.40;;;;;;;;;;4972685;28;20086;-60
2023/09/29 00:08:54;;;;;;;1.95;0.82;;;;;;;;;;4972679;28;20039;-60
2023/09/29 00:11:20;;;;;;;0.50;0.32;;;;;;;;;;4972785;28;20035;-63
2023/09/29 00:13:47;;;;;;;0.80;0.50;;;;;;;;;;4975817;28;20089;-61
2023/09/29 00:16:14;;;;;;;0.40;0.40;;;;;;;;;;4972031;28;20034;-59
2023/09/29 00:18:40;;;;;;;5.13;1.30;;;;;;;;;;4971560;28;20089;-60
2023/09/29 00:21:07;;;;;;;0.68;0.52;;;;;;;;;;4971450;28;20026;-59
2023/09/29 00:23:35;;;;;;;0.45;0.40;;;;;;;;;;4971188;28;20478;-60
2023/09/29 00:26:01;;;;;;;4.28;1.00;;;;;;;;;;4974607;28;20449;-59
2023/09/29 00:28:28;;;;;;;0.65;0.50;;;;;;;;;;4975493;28;20035;-59
2023/09/29 00:30:55;;;;;;;1.35;0.77;;;;;;;;;;4975502;28;20378;-60
2023/09/29 00:33:21;;;;;;;3.03;0.80;;;;;;;;;;4974431;28;20033;-60
2023/09/29 00:35:48;;;;;;;0.82;0.47;;;;;;;;;;4975452;28;20031;-59
2023/09/29 00:38:15;;;;;;;3.42;0.98;;;;;;;;;;4972436;28;20026;-60
2023/09/29 00:40:41;;;;;;;1.08;0.68;;;;;;;;;;4970535;28;20035;-60
2023/09/29 00:43:08;;;;;;;0.75;0.50;;;;;;;;;;4970348;28;20023;-59
2023/09/29 00:45:36;;;;;;;0.57;0.52;;;;;;;;;;4970444;28;20038;-60
2023/09/29 00:48:10;;;;;;;0.60;0.50;;;;;;;;;;4972314;28;20521;-60
2023/09/29 00:50:40;;;;;;;0.75;0.60;;;;;;;;;;4991809;28;20026;-62
2023/09/29 00:53:11;;;;;;;0.40;0.35;;;;;;;;;;4994808;28;20140;-60
2023/09/29 00:55:41;;;;;;;1.85;0.90;;;;;;;;;;4994855;28;20026;-60
2023/09/29 00:58:08;;;;;;;0.75;0.60;;;;;;;;;;4994664;28;20045;-60
2023/09/29 01:00:41;;;;;;;1.67;0.80;;;;;;;;;;4991999;28;20030;-59
2023/09/29 01:03:13;;;;;;;0.90;0.60;;;;;;;;;;4989381;28;20478;-59
2023/09/29 01:05:44;;;;;;;1.75;0.93;;;;;;;;;;4989466;28;20042;-59
2023/09/29 01:08:12;;;;;;;0.75;0.60;;;;;;;;;;4989363;28;20029;-59
2023/09/29 01:10:40;;;;;;;2.40;0.68;;;;;;;;;;4991301;28;20061;-59
2023/09/29 01:13:08;;;;;;;1.38;0.88;;;;;;;;;;4994642;28;20117;-60
2023/09/29 01:15:36;;;;;;;0.50;0.50;;;;;;;;;;4994317;28;20029;-58
2023/09/29 01:18:03;;;;;;;4.03;0.63;;;;;;;;;;4994335;28;20026;-59
2023/09/29 01:20:30;;;;;;;7.53;0.97;;;;;;;;;;4994091;28;20034;-59
2023/09/29 01:23:00;;;;;;;1.63;0.40;;;;;;;;;;4991977;28;20054;-59
2023/09/29 01:25:27;;;;;;;0.47;0.40;;;;;;;;;;4989017;28;20486;-59
2023/09/29 01:27:54;;;;;;;0.82;0.60;;;;;;;;;;4988302;28;21419;-59
2023/09/29 01:30:21;;;;;;;1.48;0.65;;;;;;;;;;4989401;28;20446;-59
2023/09/29 01:32:49;;;;;;;0.75;0.57;;;;;;;;;;4989859;28;20553;-59
2023/09/29 01:35:16;;;;;;;7.17;1.20;;;;;;;;;;4994164;28;20026;-59
2023/09/29 01:37:44;;;;;;;0.32;0.30;;;;;;;;;;4993783;28;20057;-59
2023/09/29 01:40:11;;;;;;;1.53;0.80;;;;;;;;;;4993193;28;20042;-58
2023/09/29 01:42:39;;;;;;;6.17;1.13;;;;;;;;;;4993690;28;20030;-59
2023/09/29 01:45:16;;;;;;;1.47;0.83;;;;;;;;;;4992714;28;20478;-59
2023/09/29 01:47:45;;;;;;;0.70;0.47;;;;;;;;;;4988743;28;20088;-58
2023/09/29 01:50:12;;;;;;;1.40;0.77;;;;;;;;;;4988488;28;20070;-59
2023/09/29 01:52:39;;;;;;;1.43;0.80;;;;;;;;;;4988605;28;20113;-59
2023/09/29 01:55:10;;;;;;;1.20;0.80;;;;;;;;;;4988729;28;20101;-59
2023/09/29 01:57:38;;;;;;;2.27;0.77;;;;;;;;;;4993637;28;20040;-58
2023/09/29 02:00:04;;;;;;;2.37;0.70;;;;;;;;;;4993484;28;20683;-59
2023/09/29 02:02:31;;;;;;;1.37;0.87;;;;;;;;;;4993586;28;20022;-59
2023/09/29 02:04:58;;;;;;;1.73;0.90;;;;;;;;;;4993586;28;20390;-59
2023/09/29 02:07:25;;;;;;;1.50;0.73;;;;;;;;;;4992960;28;20037;-59
2023/09/29 02:09:51;;;;;;;0.83;0.60;;;;;;;;;;4988235;28;20034;-59
2023/09/29 02:12:18;;;;;;;4.17;1.17;;;;;;;;;;4988315;28;20057;-59
2023/09/29 02:14:45;;;;;;;2.03;1.00;;;;;;;;;;4987869;28;20694;-58
2023/09/29 02:17:12;;;;;;;1.30;0.70;;;;;;;;;;4987974;28;20030;-58
2023/09/29 02:19:38;;;;;;;1.37;0.80;;;;;;;;;;4992931;28;20022;-58
2023/09/29 02:22:06;;;;;;;0.83;0.60;;;;;;;;;;4993197;28;20022;-59
2023/09/29 02:24:33;;;;;;;6.43;1.30;;;;;;;;;;4993273;28;20022;-58
2023/09/29 02:27:00;;;;;;;1.40;0.93;;;;;;;;;;4993041;28;20026;-58
2023/09/29 02:29:27;;;;;;;3.53;1.10;;;;;;;;;;4993166;28;20038;-58
2023/09/29 02:31:58;;;;;;;4.20;1.30;;;;;;;;;;4988201;28;20477;-58
2023/09/29 02:34:24;;;;;;;2.73;0.90;;;;;;;;;;4987262;28;20027;-58
2023/09/29 02:36:52;;;;;;;4.40;1.37;;;;;;;;;;4987672;28;20494;-59
2023/09/29 02:39:19;;;;;;;1.40;0.90;;;;;;;;;;4987777;28;20074;-59
2023/09/29 02:41:46;;;;;;;1.77;0.70;;;;;;;;;;4991606;28;20034;-58
2023/09/29 02:44:12;;;;;;;2.83;1.20;;;;;;;;;;4992954;28;20113;-59
2023/09/29 02:46:39;;;;;;;2.47;0.80;;;;;;;;;;4992971;28;20034;-58
2023/09/29 02:49:09;;;;;;;3.33;0.83;;;;;;;;;;4992597;28;20504;-58
2023/09/29 02:51:36;;;;;;;2.00;0.80;;;;;;;;;;4992816;28;20121;-58
2023/09/29 02:54:03;;;;;;;1.53;0.80;;;;;;;;;;4988501;28;20034;-58
2023/09/29 02:56:30;;;;;;;4.10;1.10;;;;;;;;;;4987836;28;20061;-58
2023/09/29 02:58:57;;;;;;;1.53;1.10;;;;;;;;;;4987497;28;20030;-58
2023/09/29 03:01:23;;;;;;;1.47;1.03;;;;;;;;;;4987531;28;20033;-58
2023/09/29 03:03:54;;;;;;;1.33;0.83;;;;;;;;;;4990288;28;20038;-58
2023/09/29 03:06:21;;;;;;;1.33;0.67;;;;;;;;;;4992466;28;20042;-58
2023/09/29 03:08:59;;;;;;;7.43;1.10;;;;;;;;;;4992427;28;20030;-58
2023/09/29 03:11:26;;;;;;;2.10;1.27;;;;;;;;;;4992725;28;20034;-58
2023/09/29 03:13:56;;;;;;;1.03;0.70;;;;;;;;;;4992565;28;20026;-59
2023/09/29 03:16:26;;;;;;;1.17;0.87;;;;;;;;;;4989156;28;20036;-58
2023/09/29 03:18:55;;;;;;;1.60;1.00;;;;;;;;;;4987393;28;20023;-58
2023/09/29 03:21:22;;;;;;;10.30;1.50;;;;;;;;;;4987336;28;20023;-58
2023/09/29 03:23:48;;;;;;;1.40;0.70;;;;;;;;;;4987354;28;20421;-58
2023/09/29 03:26:21;;;;;;;3.23;1.10;;;;;;;;;;4989505;28;20094;-58
2023/09/29 03:28:49;;;;;;;0.50;0.40;;;;;;;;;;4992328;28;20034;-58
2023/09/29 03:31:18;;;;;;;1.73;1.13;;;;;;;;;;4992460;28;20029;-58
2023/09/29 03:33:44;;;;;;;4.83;0.53;;;;;;;;;;4992409;28;20043;-58
2023/09/29 03:36:11;;;;;;;1.40;0.93;;;;;;;;;;4988135;28;20085;-59
2023/09/29 03:38:38;;;;;;;1.73;1.10;;;;;;;;;;4988478;28;20097;-57
2023/09/29 03:41:07;;;;;;;1.73;0.80;;;;;;;;;;4987078;28;20033;-58
2023/09/29 03:43:34;;;;;;;3.47;1.73;;;;;;;;;;4983068;28;20022;-58
2023/09/29 03:46:00;;;;;;;1.37;1.07;;;;;;;;;;4987528;28;20022;-58
2023/09/29 03:48:28;;;;;;;1.60;1.10;;;;;;;;;;4993033;28;20421;-58
2023/09/29 03:50:55;;;;;;;1.43;0.97;;;;;;;;;;4996298;28;20031;-58
2023/09/29 03:53:22;;;;;;;4.03;1.37;;;;;;;;;;4995720;28;20037;-58
2023/09/29 03:55:49;;;;;;;1.30;0.87;;;;;;;;;;4996052;28;20036;-58
2023/09/29 03:58:15;;;;;;;6.80;1.63;;;;;;;;;;4996044;28;20026;-59
2023/09/29 04:00:42;;;;;;;2.17;1.07;;;;;;;;;;4994006;28;20077;-58
2023/09/29 04:03:09;;;;;;;3.30;1.40;;;;;;;;;;4974602;28;20026;-58
2023/09/29 04:05:35;;;;;;;7.80;1.70;;;;;;;;;;4971621;28;20089;-59
2023/09/29 04:08:03;;;;;;;3.53;1.30;;;;;;;;;;4974602;28;20038;-59
2023/09/29 04:10:29;;;;;;;1.93;1.23;;;;;;;;;;4989435;28;20030;-58
2023/09/29 04:12:56;;;;;;;3.50;1.83;;;;;;;;;;4995799;28;20056;-58
2023/09/29 04:15:24;;;;;;;2.63;1.53;;;;;;;;;;4986640;28;20039;-59
2023/09/29 04:17:50;;;;;;;7.17;1.27;;;;;;;;;;4975895;28;20038;-58
2023/09/29 04:20:17;;;;;;;1.60;0.93;;;;;;;;;;4976296;28;20482;-58
2023/09/29 04:22:45;;;;;;;2.27;1.37;;;;;;;;;;4976313;28;20094;-58
2023/09/29 04:25:11;;;;;;;6.67;1.50;;;;;;;;;;4986091;28;20041;-58
2023/09/29 04:27:38;;;;;;;2.87;1.57;;;;;;;;;;4990070;28;20031;-59
2023/09/29 04:30:06;;;;;;;3.17;1.83;;;;;;;;;;4990193;28;20046;-58
2023/09/29 04:32:33;;;;;;;4.17;1.60;;;;;;;;;;4981552;28;20038;-58
2023/09/29 04:34:59;;;;;;;1.87;1.10;;;;;;;;;;4975233;28;20027;-57
2023/09/29 04:37:26;;;;;;;1.27;1.00;;;;;;;;;;4981490;28;20022;-58
2023/09/29 04:39:53;;;;;;;6.90;1.70;;;;;;;;;;4985964;28;20550;-58
2023/09/29 04:42:19;;;;;;;1.73;1.10;;;;;;;;;;4979682;28;20426;-58
2023/09/29 04:44:46;;;;;;;0.50;0.50;;;;;;;;;;4977936;28;20081;-57
2023/09/29 04:47:13;;;;;;;0.97;0.87;;;;;;;;;;4990630;28;20494;-57
2023/09/29 04:49:39;;;;;;;12.20;1.33;;;;;;;;;;4986592;28;20113;-59
2023/09/29 04:52:06;;;;;;;3.10;1.53;;;;;;;;;;4987553;28;20500;-58
2023/09/29 04:54:33;;;;;;;4.90;1.53;;;;;;;;;;4975802;28;20030;-57
2023/09/29 04:56:59;;;;;;;2.70;1.33;;;;;;;;;;4989049;28;20109;-58
2023/09/29 04:59:26;;;;;;;1.70;1.17;;;;;;;;;;4990696;28;20046;-58
2023/09/29 05:01:53;;;;;;;3.70;1.40;;;;;;;;;;4989750;28;20022;-58
2023/09/29 05:04:20;;;;;;;1.67;0.87;;;;;;;;;;4989966;28;20241;-60
2023/09/29 05:06:46;;;;;;;0.97;0.53;;;;;;;;;;4985167;28;20030;-57
2023/09/29 05:09:15;;;;;;;2.50;1.60;;;;;;;;;;4988218;28;20544;-58
2023/09/29 05:11:42;;;;;;;1.07;0.77;;;;;;;;;;4979774;28;20525;-57
2023/09/29 05:14:08;;;;;;;2.60;1.10;;;;;;;;;;4978595;28;20034;-57
2023/09/29 05:16:35;;;;;;;2.70;1.37;;;;;;;;;;4971319;28;20038;-58
2023/09/29 05:19:02;;;;;;;2.37;1.07;;;;;;;;;;4990820;28;20026;-59
2023/09/29 05:21:28;;;;;;;1.20;0.97;;;;;;;;;;4975173;28;20382;-57
2023/09/29 05:23:55;;;;;;;2.13;1.40;;;;;;;;;;4983504;28;20372;-58
2023/09/29 05:26:22;;;;;;;2.57;1.23;;;;;;;;;;4993578;28;20030;-58
2023/09/29 05:28:51;;;;;;;17.73;1.30;;;;;;;;;;4975153;28;20035;-60
2023/09/29 05:31:18;;;;;;;2.40;1.13;;;;;;;;;;4978451;28;20111;-60
2023/09/29 05:33:44;;;;;;;9.63;1.40;;;;;;;;;;4989124;28;20053;-59
2023/09/29 05:36:11;;;;;;;1.37;1.00;;;;;;;;;;4989228;28;20359;-60
2023/09/29 05:38:38;;;;;;;1.60;1.00;;;;;;;;;;4988728;28;20034;-60
2023/09/29 05:41:04;;;;;;;6.57;1.20;;;;;;;;;;4988021;28;20500;-59
2023/09/29 05:43:31;;;;;;;2.33;1.07;;;;;;;;;;4974639;28;20015;-60
2023/09/29 05:45:58;;;;;;;0.60;0.57;;;;;;;;;;4978470;28;20045;-59
2023/09/29 05:48:25;;;;;;;1.67;1.13;;;;;;;;;;4993385;28;20038;-60
2023/09/29 05:50:51;;;;;;;1.80;0.97;;;;;;;;;;4982182;28;20033;-58
2023/09/29 05:53:18;;;;;;;0.90;0.70;;;;;;;;;;4981009;28;20030;-57
2023/09/29 05:55:45;;;;;;;0.67;0.63;;;;;;;;;;4988368;28;20030;-57
2023/09/29 05:58:12;;;;;;;1.47;1.00;;;;;;;;;;4988175;28;20053;-59
2023/09/29 06:00:38;;;;;;;3.90;0.97;;;;;;;;;;4988073;28;20023;-60
2023/09/29 06:03:05;;;;;;;1.17;0.70;;;;;;;;;;4988109;28;20072;-59
2023/09/29 06:05:32;;;;;;;3.40;1.60;;;;;;;;;;4983449;28;20402;-59
2023/09/29 06:07:58;;;;;;;1.10;0.73;;;;;;;;;;4992842;28;20073;-59
2023/09/29 06:10:25;;;;;;;1.20;1.00;;;;;;;;;;4983484;28;20386;-59
2023/09/29 06:12:52;;;;;;;0.80;0.60;;;;;;;;;;4974103;28;20031;-59
2023/09/29 06:15:19;;;;;;;1.53;0.97;;;;;;;;;;4973990;28;20027;-58
2023/09/29 06:17:45;;;;;;;3.13;0.97;;;;;;;;;;4970035;28;20027;-59
2023/09/29 06:20:12;;;;;;;1.23;1.03;;;;;;;;;;4985859;28;20496;-57
2023/09/29 06:22:39;;;;;;;4.17;0.97;;;;;;;;;;4977656;28;20039;-59
2023/09/29 06:25:06;;;;;;;2.57;1.23;;;;;;;;;;4968588;28;20030;-58
2023/09/29 06:27:32;;;;;;;1.20;0.90;;;;;;;;;;4972144;28;20069;-58
2023/09/29 06:29:59;;;;;;;1.47;1.07;;;;;;;;;;4973779;28;20046;-58
2023/09/29 06:32:25;;;;;;;0.83;0.63;;;;;;;;;;4973817;28;20027;-58
2023/09/29 06:34:52;;;;;;;1.23;1.03;;;;;;;;;;4973559;28;20030;-58
2023/09/29 06:37:19;;;;;;;0.67;0.50;;;;;;;;;;4973435;28;20471;-59
2023/09/29 06:39:45;;;;;;;1.07;0.57;;;;;;;;;;4981769;28;20026;-59
2023/09/29 06:42:12;;;;;;;1.03;0.70;;;;;;;;;;4987471;28;20026;-59
2023/09/29 06:44:38;;;;;;;2.07;1.00;;;;;;;;;;4980333;28;20027;-58
2023/09/29 06:47:06;;;;;;;0.47;0.40;;;;;;;;;;4987698;28;20026;-58
2023/09/29 06:49:32;;;;;;;1.97;1.00;;;;;;;;;;4989914;28;20508;-58
2023/09/29 06:51:59;;;;;;;0.87;0.70;;;;;;;;;;4992818;28;20030;-58
2023/09/29 06:54:25;;;;;;;1.80;1.03;;;;;;;;;;4992039;28;20041;-59
2023/09/29 06:56:52;;;;;;;0.70;0.50;;;;;;;;;;4992796;28;20054;-58
2023/09/29 06:59:19;;;;;;;0.87;0.63;;;;;;;;;;4986136;28;20371;-58
2023/09/29 07:01:46;;;;;;;2.17;1.33;;;;;;;;;;4979969;28;20023;-58
2023/09/29 07:04:12;;;;;;;0.60;0.40;;;;;;;;;;4968172;28;20031;-60
2023/09/29 07:06:40;;;;;;;1.23;0.90;;;;;;;;;;4981995;28;20045;-59
2023/09/29 07:09:07;;;;;;;1.47;0.87;;;;;;;;;;4968723;28;20081;-59
2023/09/29 07:11:34;;;;;;;0.90;0.53;;;;;;;;;;4974654;28;20125;-58
2023/09/29 07:14:00;;;;;;;1.20;0.60;;;;;;;;;;4992192;28;20030;-58
2023/09/29 07:16:28;;;;;;;2.17;1.20;;;;;;;;;;4983353;28;20429;-58
2023/09/29 07:18:55;;;;;;;0.57;0.47;;;;;;;;;;4973028;28;20041;-58
2023/09/29 07:21:22;;;;;;;0.77;0.60;;;;;;;;;;4974088;28;20058;-59
2023/09/29 07:23:48;;;;;;;1.23;0.80;;;;;;;;;;4986756;28;20031;-59
2023/09/29 07:26:15;;;;;;;0.40;0.40;;;;;;;;;;4990839;28;20058;-58
2023/09/29 07:28:42;;;;;;;1.37;0.70;;;;;;;;;;4990823;28;20454;-59
2023/09/29 07:31:08;;;;;;;1.30;0.83;;;;;;;;;;4991280;28;21446;-59
2023/09/29 07:33:35;;;;;;;2.10;0.80;;;;;;;;;;4991366;28;20428;-59
2023/09/29 07:36:02;;;;;;;1.10;0.63;;;;;;;;;;4996700;28;20023;-58
2023/09/29 07:38:28;;;;;;;0.97;0.70;;;;;;;;;;4980861;28;20057;-58
2023/09/29 07:40:55;;;;;;;3.13;1.57;;;;;;;;;;4976803;28;20443;-59
2023/09/29 07:43:22;;;;;;;1.90;1.10;;;;;;;;;;4979265;28;20023;-58
2023/09/29 07:45:48;;;;;;;3.77;1.10;;;;;;;;;;4995362;28;20029;-59
2023/09/29 07:48:16;;;;;;;0.63;0.63;;;;;;;;;;4990413;28;20084;-60
2023/09/29 07:50:42;;;;;;;0.57;0.50;;;;;;;;;;4990946;28;20037;-59
2023/09/29 07:53:11;;;;;;;4.87;1.10;;;;;;;;;;4990539;28;20034;-59
2023/09/29 07:55:37;;;;;;;0.80;0.53;;;;;;;;;;4990366;28;20521;-59
2023/09/29 07:58:04;;;;;;;0.93;0.67;;;;;;;;;;4995319;28;20044;-58
2023/09/29 08:00:31;;;;;;;1.13;0.80;;;;;;;;;;4995567;28;20018;-59
2023/09/29 08:02:57;;;;;;;1.70;0.83;;;;;;;;;;4995869;28;20149;-58
2023/09/29 08:05:24;;;;;;;1.33;0.80;;;;;;;;;;4988696;28;20027;-59
2023/09/29 08:07:51;;;;;;;1.23;0.70;;;;;;;;;;4976343;28;20031;-59
2023/09/29 08:10:18;;;;;;;1.17;0.90;;;;;;;;;;4971062;28;20042;-59
2023/09/29 08:12:45;;;;;;;1.00;0.70;;;;;;;;;;4984895;28;20026;-59
2023/09/29 08:15:13;;;;;;;1.47;0.77;;;;;;;;;;4971986;28;20473;-58
2023/09/29 08:17:40;;;;;;;0.37;0.37;;;;;;;;;;4989188;28;20045;-59
2023/09/29 08:20:07;;;;;;;0.40;0.30;;;;;;;;;;4993656;28;20061;-59
2023/09/29 08:22:33;;;;;;;0.73;0.60;;;;;;;;;;4995586;28;20418;-58
2023/09/29 08:25:03;;;;;;;2.33;0.80;;;;;;;;;;4995034;28;20026;-59
2023/09/29 08:27:30;;;;;;;1.77;0.70;;;;;;;;;;4986545;28;20466;-59
2023/09/29 08:29:56;;;;;;;0.70;0.63;;;;;;;;;;4995173;28;20433;-58
2023/09/29 08:32:23;;;;;;;0.63;0.57;;;;;;;;;;4990320;28;20057;-58
2023/09/29 08:34:49;;;;;;;1.30;1.00;;;;;;;;;;4989762;28;20022;-59
2023/09/29 08:37:16;;;;;;;1.37;0.90;;;;;;;;;;4973025;28;20156;-59
2023/09/29 08:39:43;;;;;;;0.70;0.60;;;;;;;;;;4980749;28;20027;-58
2023/09/29 08:42:26;;;;;;;0.93;0.60;;;;;;;;;;4973263;28;20034;-59
2023/09/29 08:44:54;;;;;;;1.03;0.70;;;;;;;;;;4975815;28;20027;-58
2023/09/29 08:47:24;;;;;;;1.33;0.80;;;;;;;;;;4975536;28;20042;-58
2023/09/29 08:49:51;;;;;;;6.67;2.20;;;;;;;;;;4975585;28;20031;-58
2023/09/29 08:52:19;;;;;;;4.63;1.63;;;;;;;;;;4983750;28;20388;-58
2023/09/29 08:54:46;;;;;;;1.97;1.07;;;;;;;;;;4990971;28;20477;-58
2023/09/29 08:57:13;;;;;;;1.03;0.73;;;;;;;;;;4988726;28;20018;-58
2023/09/29 08:59:41;;;;;;;5.40;2.30;;;;;;;;;;4989667;28;20045;-59
2023/09/29 09:02:08;;;;;;;4.53;1.73;;;;;;;;;;4974146;28;20173;-60
2023/09/29 09:04:34;;;;;;;2.27;1.57;;;;;;;;;;4972968;28;20033;-59
2023/09/29 09:07:02;;;;;;;3.97;2.53;;;;;;;;;;4975654;28;20033;-58
2023/09/29 09:09:29;;;;;;;3.80;2.10;;;;;;;;;;4974921;28;20105;-59
2023/09/29 09:11:56;;;;;;;1.53;1.20;;;;;;;;;;4975017;28;20057;-58
2023/09/29 09:14:23;;;;;;;2.53;1.30;;;;;;;;;;4975081;28;20027;-58
2023/09/29 09:16:50;;;;;;;3.00;1.60;;;;;;;;;;4974272;28;20023;-58
2023/09/29 09:19:17;;;;;;;5.10;1.83;;;;;;;;;;4988990;28;20096;-58
2023/09/29 09:21:46;;;;;;;5.23;2.40;;;;;;;;;;4989204;28;20035;-58
2023/09/29 09:24:23;;;;;;;3.37;1.53;;;;;;;;;;4970069;28;20097;-58
2023/09/29 09:26:50;;;;;;;3.80;2.20;;;;;;;;;;4971879;28;20114;-58
2023/09/29 09:29:18;;;;;;;2.73;1.73;;;;;;;;;;4974581;28;20066;-58
2023/09/29 09:31:45;;;;;;;2.33;1.30;;;;;;;;;;4974368;28;20390;-58
2023/09/29 09:34:14;;;;;;;2.93;1.30;;;;;;;;;;4974770;28;20027;-58
2023/09/29 09:36:45;;;;;;;10.83;2.90;;;;;;;;;;4974894;28;20026;-58
2023/09/29 09:39:12;;;;;;;1.40;0.80;;;;;;;;;;4978882;28;20030;-58
2023/09/29 09:41:39;;;;;;;2.03;0.97;;;;;;;;;;4988460;28;20113;-58
2023/09/29 09:44:06;;;;;;;1.43;0.70;;;;;;;;;;4978991;28;20034;-58
2023/09/29 09:46:34;;;;;;;1.03;0.80;;;;;;;;;;4988402;28;20077;-59
2023/09/29 09:49:09;;;;;;;1.13;0.80;;;;;;;;;;4989112;28;20038;-58
2023/09/29 09:51:36;;;;;;;1.83;0.77;;;;;;;;;;4993773;28;20031;-58
2023/09/29 09:54:03;;;;;;;0.77;0.63;;;;;;;;;;4993323;28;20022;-58
2023/09/29 09:56:37;;;;;;;0.93;0.50;;;;;;;;;;4983974;28;20031;-58
2023/09/29 09:59:05;;;;;;;1.53;0.97;;;;;;;;;;4975344;28;20114;-58
2023/09/29 10:01:32;;;;;;;1.23;0.80;;;;;;;;;;4973386;28;20474;-59
2023/09/29 10:04:02;;;;;;;1.00;0.70;;;;;;;;;;4988526;28;20033;-58
2023/09/29 10:06:30;;;;;;;1.47;0.80;;;;;;;;;;4975732;28;20553;-58
2023/09/29 10:09:09;;;;;;;4.20;0.90;;;;;;;;;;4968837;28;20089;-58
2023/09/29 10:11:35;;;;;;;1.43;0.70;;;;;;;;;;4987090;28;20486;-58
2023/09/29 10:14:03;;;;;;;1.57;1.00;;;;;;;;;;4993425;28;20022;-58
2023/09/29 10:16:31;;;;;;;12.43;1.00;;;;;;;;;;4993155;28;20101;-58
2023/09/29 10:18:59;;;;;;;19.87;1.37;;;;;;;;;;4993286;28;20030;-58
2023/09/29 10:21:28;;;;;;;0.90;0.70;;;;;;;;;;4993179;28;20031;-58
2023/09/29 10:24:00;;;;;;;1.23;0.90;;;;;;;;;;4991412;28;20084;-58
2023/09/29 10:26:28;;;;;;;1.13;0.83;;;;;;;;;;4976632;28;20031;-58
2023/09/29 10:29:01;;;;;;;0.30;0.30;;;;;;;;;;4968429;28;20053;-58
2023/09/29 10:31:29;;;;;;;0.80;0.53;;;;;;;;;;4968319;28;20058;-58
2023/09/29 10:33:56;;;;;;;1.17;0.70;;;;;;;;;;4986367;28;20034;-59
2023/09/29 10:36:30;;;;;;;1.37;0.77;;;;;;;;;;4983777;28;20061;-58
2023/09/29 10:38:57;;;;;;;1.70;1.00;;;;;;;;;;4990706;28;20513;-58
2023/09/29 10:41:28;;;;;;;1.17;0.80;;;;;;;;;;4979620;28;20498;-60
2023/09/29 10:43:59;;;;;;;0.63;0.47;;;;;;;;;;4973415;28;20047;-58
2023/09/29 10:46:26;;;;;;;1.40;1.07;;;;;;;;;;4971431;28;20038;-58
2023/09/29 10:48:54;;;;;;;1.83;1.20;;;;;;;;;;4968408;28;20035;-58
2023/09/29 10:51:24;;;;;;;1.00;0.80;;;;;;;;;;4982900;28;20449;-58
2023/09/29 10:53:51;;;;;;;1.13;0.73;;;;;;;;;;4987222;28;20038;-59
2023/09/29 10:56:22;;;;;;;2.00;1.10;;;;;;;;;;4987535;28;20034;-58
2023/09/29 10:58:52;;;;;;;0.83;0.77;;;;;;;;;;4974545;28;20066;-58
2023/09/29 11:01:30;;;;;;;1.13;0.63;;;;;;;;;;4972990;28;20026;-58
2023/09/29 11:03:57;;;;;;;0.73;0.63;;;;;;;;;;4973309;28;20035;-59
2023/09/29 11:06:23;;;;;;;2.40;1.30;;;;;;;;;;4988247;28;20034;-58
2023/09/29 11:08:58;;;;;;;0.37;0.37;;;;;;;;;;4990276;28;20461;-58
2023/09/29 11:11:33;;;;;;;1.60;0.82;;;;;;;;;;4986733;28;20042;-59
2023/09/29 11:14:02;;;;;;;3.83;1.33;;;;;;;;;;4987166;28;20026;-59
2023/09/29 11:16:30;;;;;;;3.43;1.77;;;;;;;;;;4987495;28;20081;-58
2023/09/29 11:19:07;;;;;;;3.33;1.20;;;;;;;;;;4989035;28;20038;-58
2023/09/29 11:21:37;;;;;;;2.13;1.20;;;;;;;;;;4992296;28;20085;-59
2023/09/29 11:24:07;;;;;;;0.93;0.80;;;;;;;;;;4992559;28;20030;-58
2023/09/29 11:26:34;;;;;;;1.43;1.00;;;;;;;;;;4988208;28;20033;-58
2023/09/29 11:29:02;;;;;;;3.80;1.57;;;;;;;;;;4972782;28;20042;-58
2023/09/29 11:31:29;;;;;;;3.40;1.47;;;;;;;;;;4970391;28;20066;-59
2023/09/29 11:33:56;;;;;;;2.60;0.87;;;;;;;;;;4967921;28;20035;-58
2023/09/29 11:36:23;;;;;;;1.97;1.07;;;;;;;;;;4967747;28;20026;-59
2023/09/29 11:38:50;;;;;;;8.90;1.53;;;;;;;;;;4984496;28;20030;-58
2023/09/29 11:41:17;;;;;;;5.37;1.57;;;;;;;;;;4988124;28;20033;-59
2023/09/29 11:43:45;;;;;;;5.60;1.07;;;;;;;;;;4987834;28;20035;-58
2023/09/29 11:46:14;;;;;;;2.47;1.10;;;;;;;;;;4972657;28;20031;-58
2023/09/29 11:48:41;;;;;;;1.67;1.27;;;;;;;;;;4972754;28;20492;-58
2023/09/29 11:51:08;;;;;;;1.57;0.70;;;;;;;;;;4984589;28;20034;-58
2023/09/29 11:53:35;;;;;;;5.20;1.97;;;;;;;;;;4990217;28;20122;-59
2023/09/29 11:56:01;;;;;;;3.17;1.23;;;;;;;;;;4986962;28;20398;-59
2023/09/29 11:58:29;;;;;;;1.57;1.10;;;;;;;;;;4979193;28;20110;-58
2023/09/29 12:00:56;;;;;;;2.67;1.43;;;;;;;;;;4967425;28;20498;-58
2023/09/29 12:03:24;;;;;;;0.93;0.73;;;;;;;;;;4982619;28;20382;-58
2023/09/29 12:05:51;;;;;;;14.57;1.07;;;;;;;;;;4992131;28;20084;-58
2023/09/29 12:08:19;;;;;;;1.03;0.80;;;;;;;;;;4990228;28;20424;-58
2023/09/29 12:10:46;;;;;;;3.33;1.00;;;;;;;;;;4976157;28;20066;-59
2023/09/29 12:13:15;;;;;;;2.53;1.33;;;;;;;;;;4986241;28;20035;-58
2023/09/29 12:15:45;;;;;;;2.23;1.20;;;;;;;;;;4993043;28;20539;-57
2023/09/29 12:18:12;;;;;;;3.07;0.93;;;;;;;;;;4987012;28;20030;-59
2023/09/29 12:20:39;;;;;;;2.07;1.23;;;;;;;;;;4989888;28;20026;-58
2023/09/29 12:23:08;;;;;;;3.23;1.93;;;;;;;;;;4990093;28;20022;-58
2023/09/29 12:25:35;;;;;;;1.00;0.87;;;;;;;;;;4990014;28;20023;-58
2023/09/29 12:28:05;;;;;;;2.70;1.53;;;;;;;;;;4995245;28;20026;-58
2023/09/29 12:30:33;;;;;;;1.50;0.93;;;;;;;;;;4995227;28;20039;-57
2023/09/29 12:33:00;;;;;;;25.57;2.50;;;;;;;;;;4981813;28;20487;-58
2023/09/29 12:35:27;;;;;;;1.87;1.10;;;;;;;;;;4975548;28;20030;-58
2023/09/29 12:37:54;;;;;;;5.47;1.10;;;;;;;;;;4975347;28;20042;-58
2023/09/29 12:40:20;;;;;;;1.57;0.90;;;;;;;;;;4970646;28;20038;-58
2023/09/29 12:42:48;;;;;;;9.63;1.90;;;;;;;;;;4980656;28;20089;-58
2023/09/29 12:45:17;;;;;;;3.47;1.70;;;;;;;;;;4979253;28;20041;-57
2023/09/29 12:47:45;;;;;;;3.37;1.70;;;;;;;;;;4988402;28;20093;-57
2023/09/29 12:50:12;;;;;;;2.80;1.67;;;;;;;;;;4994372;28;20035;-57
2023/09/29 12:52:39;;;;;;;3.43;1.83;;;;;;;;;;4995003;28;20507;-57
2023/09/29 12:55:06;;;;;;;7.70;1.43;;;;;;;;;;4994671;28;20031;-57
2023/09/29 12:57:32;;;;;;;1.93;1.30;;;;;;;;;;4994933;28;20031;-57
2023/09/29 12:59:59;;;;;;;1.07;0.87;;;;;;;;;;4993983;28;20430;-58
2023/09/29 13:02:27;;;;;;;1.67;1.17;;;;;;;;;;4985313;28;20090;-57
2023/09/29 13:04:55;;;;;;;2.40;1.53;;;;;;;;;;4970151;28;20113;-58
2023/09/29 13:07:22;;;;;;;4.03;1.57;;;;;;;;;;4978555;28;20126;-58
2023/09/29 13:09:48;;;;;;;1.93;1.30;;;;;;;;;;4988642;28;21094;-59
2023/09/29 13:12:17;;;;;;;0.97;0.80;;;;;;;;;;4992158;28;20069;-58
2023/09/29 13:14:44;;;;;;;2.40;1.77;;;;;;;;;;4994436;28;20452;-57
2023/09/29 13:17:12;;;;;;;1.90;1.20;;;;;;;;;;4992829;28;20374;-57
2023/09/29 13:19:40;;;;;;;1.87;1.30;;;;;;;;;;4974660;28;20390;-58
2023/09/29 13:22:07;;;;;;;1.53;1.23;;;;;;;;;;4974882;28;20034;-57
2023/09/29 13:24:33;;;;;;;1.40;0.90;;;;;;;;;;4974582;28;20034;-58
2023/09/29 13:27:00;;;;;;;2.73;1.73;;;;;;;;;;4988691;28;20450;-58
2023/09/29 13:29:27;;;;;;;1.23;0.90;;;;;;;;;;4988985;28;20474;-58
2023/09/29 13:31:54;;;;;;;4.13;2.07;;;;;;;;;;4988443;28;20038;-58
2023/09/29 13:34:22;;;;;;;1.90;1.37;;;;;;;;;;4991728;28;20026;-58
2023/09/29 13:36:48;;;;;;;2.60;1.50;;;;;;;;;;4986267;28;20086;-59
2023/09/29 13:39:15;;;;;;;4.63;1.53;;;;;;;;;;4985598;28;20027;-58
2023/09/29 13:41:42;;;;;;;2.73;1.60;;;;;;;;;;4994020;28;20105;-58
2023/09/29 13:44:08;;;;;;;1.90;1.27;;;;;;;;;;4993666;28;20581;-58
2023/09/29 13:46:35;;;;;;;3.10;1.67;;;;;;;;;;4990167;28;20057;-58
2023/09/29 13:49:02;;;;;;;6.50;1.70;;;;;;;;;;4988283;28;20503;-58
2023/09/29 13:51:28;;;;;;;1.97;1.50;;;;;;;;;;4969252;28;20029;-58
2023/09/29 13:53:55;;;;;;;4.40;2.00;;;;;;;;;;4969147;28;20386;-58
2023/09/29 13:56:22;;;;;;;1.87;1.47;;;;;;;;;;4989570;28;20040;-58
2023/09/29 13:58:49;;;;;;;3.47;1.93;;;;;;;;;;4993532;28;20041;-58
2023/09/29 14:01:21;;;;;;;5.30;1.70;;;;;;;;;;4991886;28;20096;-58
2023/09/29 14:03:48;;;;;;;4.03;1.80;;;;;;;;;;4976312;28;20045;-58
2023/09/29 14:06:15;;;;;;;3.00;1.40;;;;;;;;;;4993155;28;20088;-58
2023/09/29 14:08:42;;;;;;;1.13;0.90;;;;;;;;;;4981779;28;20043;-58
2023/09/29 14:11:09;;;;;;;2.80;1.07;;;;;;;;;;4968946;28;20042;-58
2023/09/29 14:13:36;;;;;;;2.47;1.20;;;;;;;;;;4968701;28;20110;-58
2023/09/29 14:16:03;;;;;;;2.50;1.50;;;;;;;;;;4981854;28;20105;-58
2023/09/29 14:18:30;;;;;;;5.67;1.30;;;;;;;;;;4973661;28;20030;-58
2023/09/29 14:20:57;;;;;;;1.73;1.00;;;;;;;;;;4974011;28;20077;-58
2023/09/29 14:23:23;;;;;;;3.37;1.33;;;;;;;;;;4973490;28;20069;-58
2023/09/29 14:25:50;;;;;;;2.10;1.50;;;;;;;;;;4973858;28;20031;-58
2023/09/29 14:28:17;;;;;;;2.23;1.20;;;;;;;;;;4973885;28;20023;-58
2023/09/29 14:30:44;;;;;;;6.37;2.20;;;;;;;;;;4971195;28;20039;-58
2023/09/29 14:33:11;;;;;;;1.43;1.10;;;;;;;;;;4968512;28;20429;-58
2023/09/29 14:35:38;;;;;;;2.07;1.17;;;;;;;;;;4968087;28;20096;-59
2023/09/29 14:38:05;;;;;;;3.30;1.40;;;;;;;;;;4976314;28;20038;-58
2023/09/29 14:40:32;;;;;;;8.57;1.57;;;;;;;;;;4987555;28;20026;-58
2023/09/29 14:42:58;;;;;;;4.90;1.23;;;;;;;;;;4993022;28;20045;-59
2023/09/29 14:45:25;;;;;;;5.43;2.03;;;;;;;;;;4992668;28;20026;-58